Preview of NWS' New Version of Forecast
This preview is not operational and should not be used for support decisions.

Terminal Aerodrome Forecast (TAF)

Issued by National Weather Service (NWS)

                            
000
FTUS46 KMTR 230541
TAFSTS
TAF
KSTS 230541Z 2306/2406 16005KT P6SM SKC
     FM230900 VRB03KT P6SM SCT006
      TEMPO 2310/2314 1/2SM FG VV002
     FM231400 24003KT 1/2SM FG VV002
     FM231630 19005KT P6SM FEW004
     FM231900 19005KT P6SM SKC
     FM232100 19010KT P6SM SKC
     FM240400 19005KT P6SM SCT008=